Dinero, Texas
Current Conditions -  °F | °C
As of 2:35 PM on Saturday 20 Dec 2014 (Local Time) from KBEA Reporting Station
Overcast Overcast  
Wind Chill: 55°   Ceiling: 1500
Heat Index: 55°   Visibility: 10mi
Dew Point: 48°   Wind: 5mph
Humidity: 79%   Direction: 350°N
Pressure: 30.15"   Gusts: NA
Location:  28.23°N, 97.96°W
Report Text: KBEA 202035Z AUTO 35004KT 10SM OVC015 13/09 A3015 RMK AO2 T01250090
Loading
Personal Weather Stations






























Interactive Weather Map New forecast layout! Learn more

10-Day Weather Forecast

Advertisements
Track Severe Weather on mobile